createdAt,value
2019-02-08T00:00:03.829Z,4.1
2019-02-08T00:01:13.042Z,4.1
2019-02-08T00:02:22.247Z,4.2
2019-02-08T00:03:31.469Z,4.2
2019-02-08T00:04:40.691Z,4.2
2019-02-08T00:05:49.927Z,4.2
2019-02-08T00:06:59.116Z,4.2
2019-02-08T00:08:08.336Z,4.2
2019-02-08T00:09:17.581Z,4.2
2019-02-08T00:10:26.763Z,4.2
2019-02-08T00:11:36.012Z,4.2
2019-02-08T00:12:45.206Z,4.2
2019-02-08T00:13:54.404Z,4.2
2019-02-08T00:15:03.642Z,4.4
2019-02-08T00:16:12.838Z,4.3
2019-02-08T00:17:22.055Z,4.3
2019-02-08T00:18:31.382Z,4.2
2019-02-08T00:19:40.496Z,4.2
2019-02-08T00:20:49.718Z,4.2
2019-02-08T00:21:58.943Z,4.2
2019-02-08T00:23:08.150Z,4.2
2019-02-08T00:24:17.404Z,4.2
2019-02-08T00:26:35.792Z,4.2
2019-02-08T00:27:45.033Z,4.2
2019-02-08T00:28:54.227Z,4.2
2019-02-08T00:30:03.502Z,4.2
2019-02-08T00:31:12.663Z,4.2
2019-02-08T00:32:21.890Z,4.2
2019-02-08T00:33:31.131Z,4.2
2019-02-08T00:34:40.328Z,4.1
2019-02-08T00:35:49.545Z,4.1
2019-02-08T00:36:58.742Z,4.1
2019-02-08T00:38:07.966Z,4.1
2019-02-08T00:39:17.187Z,4.1
2019-02-08T00:40:26.477Z,4.1
2019-02-08T00:41:35.636Z,4
2019-02-08T00:42:44.884Z,4
2019-02-08T00:43:54.060Z,4
2019-02-08T00:45:03.294Z,4
2019-02-08T00:46:12.529Z,4
2019-02-08T00:47:21.730Z,4
2019-02-08T00:48:30.914Z,4
2019-02-08T00:49:40.139Z,4
2019-02-08T00:50:49.374Z,3.9
2019-02-08T00:51:58.563Z,3.9
2019-02-08T00:53:07.777Z,4
2019-02-08T00:54:16.988Z,4
2019-02-08T00:55:26.211Z,4
2019-02-08T00:56:35.425Z,4
2019-02-08T00:57:44.636Z,4
2019-02-08T00:58:53.868Z,4
2019-02-08T01:00:03.153Z,4
2019-02-08T01:01:12.297Z,4
2019-02-08T01:02:21.533Z,3.9
2019-02-08T01:03:30.728Z,4
2019-02-08T01:04:39.922Z,3.9
2019-02-08T01:05:49.191Z,3.9
2019-02-08T01:06:58.338Z,4
2019-02-08T01:08:07.632Z,3.9
2019-02-08T01:09:16.764Z,3.9
2019-02-08T01:10:25.980Z,3.9
2019-02-08T01:11:35.249Z,3.9
2019-02-08T01:12:44.454Z,3.9
2019-02-08T01:13:53.689Z,3.9
2019-02-08T01:15:02.838Z,3.9
2019-02-08T01:16:12.047Z,3.9
2019-02-08T01:17:21.260Z,3.9
2019-02-08T01:18:30.471Z,3.8
2019-02-08T01:19:39.698Z,3.9
2019-02-08T01:20:48.887Z,3.9
2019-02-08T01:21:58.105Z,3.9
2019-02-08T01:23:07.326Z,3.9
2019-02-08T01:24:16.525Z,3.9
2019-02-08T01:25:25.749Z,3.9
2019-02-08T01:26:35.000Z,3.9
2019-02-08T01:27:44.160Z,3.9
2019-02-08T01:28:53.371Z,3.8
2019-02-08T01:30:02.583Z,3.8
2019-02-08T01:31:11.818Z,3.8
2019-02-08T01:32:21.093Z,3.8
2019-02-08T01:33:30.251Z,3.8
2019-02-08T01:34:39.450Z,3.8
2019-02-08T01:35:48.651Z,3.9
2019-02-08T01:36:57.912Z,3.8
2019-02-08T01:38:07.078Z,3.8
2019-02-08T01:39:16.373Z,3.9
2019-02-08T01:40:25.506Z,3.8
2019-02-08T01:41:34.712Z,3.8
2019-02-08T01:42:43.931Z,3.8
2019-02-08T01:43:53.127Z,3.8
2019-02-08T01:45:02.361Z,3.8
2019-02-08T01:46:11.549Z,3.8
2019-02-08T01:47:20.786Z,3.8
2019-02-08T01:48:30.020Z,3.7
2019-02-08T01:49:39.176Z,3.7
2019-02-08T01:50:48.383Z,3.8
2019-02-08T01:51:57.602Z,3.8
2019-02-08T01:53:06.834Z,3.8
2019-02-08T01:54:16.009Z,3.8
2019-02-08T01:55:25.219Z,3.8
2019-02-08T01:56:34.559Z,3.9
2019-02-08T01:57:43.652Z,3.8
2019-02-08T01:58:52.858Z,3.8
2019-02-08T02:00:02.057Z,3.8
2019-02-08T02:01:11.395Z,3.8
2019-02-08T02:02:20.492Z,3.8
2019-02-08T02:03:29.685Z,3.8
2019-02-08T02:04:38.955Z,3.8
2019-02-08T02:05:48.108Z,3.8
2019-02-08T02:06:57.315Z,3.8
2019-02-08T02:08:06.523Z,3.8
2019-02-08T02:09:15.736Z,3.8
2019-02-08T02:10:24.944Z,3.8
2019-02-08T02:11:34.156Z,3.7
2019-02-08T02:12:43.371Z,3.7
2019-02-08T02:13:52.643Z,3.7
2019-02-08T02:15:01.784Z,3.7
2019-02-08T02:16:10.992Z,3.8
2019-02-08T02:17:20.254Z,3.8
2019-02-08T02:18:29.422Z,3.7
2019-02-08T02:19:38.640Z,3.7
2019-02-08T02:20:47.885Z,3.7
2019-02-08T02:21:57.021Z,3.7
2019-02-08T02:23:06.236Z,3.7
2019-02-08T02:24:15.513Z,3.7
2019-02-08T02:25:24.642Z,3.7
2019-02-08T02:26:33.849Z,3.7
2019-02-08T02:27:43.127Z,3.6
2019-02-08T02:28:52.269Z,3.6
2019-02-08T02:30:01.491Z,3.7
2019-02-08T02:31:10.683Z,3.7
2019-02-08T02:32:19.902Z,3.6
2019-02-08T02:33:29.082Z,3.6
2019-02-08T02:34:38.295Z,3.6
2019-02-08T02:35:47.621Z,3.6
2019-02-08T02:36:56.709Z,3.7
2019-02-08T02:38:05.923Z,3.7
2019-02-08T02:39:15.157Z,3.7
2019-02-08T02:40:24.452Z,3.6
2019-02-08T02:41:33.549Z,3.7
2019-02-08T02:42:42.857Z,3.7
2019-02-08T02:43:51.972Z,3.7
2019-02-08T02:45:01.214Z,3.6
2019-02-08T02:46:10.346Z,3.6
2019-02-08T02:47:19.567Z,3.6
2019-02-08T02:48:28.763Z,3.7
2019-02-08T02:49:37.982Z,3.7
2019-02-08T02:50:47.168Z,3.7
2019-02-08T02:51:56.378Z,3.7
2019-02-08T02:53:05.595Z,3.8
2019-02-08T02:54:14.786Z,3.8
2019-02-08T02:55:24.020Z,3.7
2019-02-08T02:56:33.203Z,3.7
2019-02-08T02:57:42.435Z,3.7
2019-02-08T02:58:51.611Z,3.8
2019-02-08T03:00:00.847Z,3.8
2019-02-08T03:01:10.024Z,3.8
2019-02-08T03:02:19.241Z,3.8
2019-02-08T03:03:28.464Z,3.7
2019-02-08T03:04:37.706Z,3.7
2019-02-08T03:05:46.867Z,3.7
2019-02-08T03:06:56.100Z,3.8
2019-02-08T03:08:05.278Z,3.7
2019-02-08T03:09:14.562Z,3.8
2019-02-08T03:10:23.688Z,3.7
2019-02-08T03:11:32.917Z,3.7
2019-02-08T03:12:42.108Z,3.7
2019-02-08T03:13:51.317Z,3.7
2019-02-08T03:15:00.560Z,3.8
2019-02-08T03:16:09.720Z,3.8
2019-02-08T03:17:18.952Z,3.8
2019-02-08T03:18:28.156Z,3.8
2019-02-08T03:19:37.337Z,3.8
2019-02-08T03:20:48.233Z,3.7
2019-02-08T03:21:57.454Z,3.7
2019-02-08T03:23:06.717Z,3.8
2019-02-08T03:24:15.858Z,3.7
2019-02-08T03:25:25.109Z,3.8
2019-02-08T03:26:34.267Z,3.9
2019-02-08T03:27:43.508Z,3.9
2019-02-08T03:28:52.686Z,3.9
2019-02-08T03:30:01.916Z,3.8
2019-02-08T03:31:11.128Z,3.8
2019-02-08T03:32:20.310Z,3.9
2019-02-08T03:33:29.510Z,3.9
2019-02-08T03:34:38.764Z,3.9
2019-02-08T03:35:47.920Z,4
2019-02-08T03:36:57.127Z,4
2019-02-08T03:38:06.372Z,3.9
2019-02-08T03:39:15.596Z,3.9
2019-02-08T03:40:24.825Z,4
2019-02-08T03:41:33.961Z,3.9
2019-02-08T03:42:43.219Z,3.9
2019-02-08T03:43:52.459Z,4
2019-02-08T03:45:01.583Z,3.9
2019-02-08T03:46:10.808Z,3.9
2019-02-08T03:47:20.025Z,3.9
2019-02-08T03:48:29.256Z,3.9
2019-02-08T03:49:38.427Z,3.9
2019-02-08T03:50:47.736Z,3.9
2019-02-08T03:51:56.847Z,3.9
2019-02-08T03:53:06.047Z,3.9
2019-02-08T03:54:20.814Z,3.9
2019-02-08T03:55:24.470Z,3.9
2019-02-08T03:56:33.689Z,3.9
2019-02-08T03:57:42.881Z,3.9
2019-02-08T03:58:52.123Z,4
2019-02-08T04:00:01.410Z,3.9
2019-02-08T04:01:10.499Z,4
2019-02-08T04:02:19.726Z,4
2019-02-08T04:03:28.935Z,3.9
2019-02-08T04:04:38.128Z,3.9
2019-02-08T04:05:47.399Z,3.9
2019-02-08T04:06:56.548Z,3.9
2019-02-08T04:08:05.777Z,3.9
2019-02-08T04:09:15.010Z,3.9
2019-02-08T04:10:24.194Z,3.9
2019-02-08T04:11:33.387Z,3.8
2019-02-08T04:12:42.701Z,3.8
2019-02-08T04:13:51.798Z,3.8
2019-02-08T04:15:01.024Z,3.9
2019-02-08T04:16:10.234Z,3.9
2019-02-08T04:17:19.438Z,3.9
2019-02-08T04:18:28.641Z,3.9
2019-02-08T04:19:37.854Z,3.9
2019-02-08T04:20:47.065Z,3.9
2019-02-08T04:21:56.266Z,3.8
2019-02-08T04:23:05.522Z,3.9
2019-02-08T04:24:14.798Z,3.9
2019-02-08T04:25:23.896Z,3.9
2019-02-08T04:26:33.107Z,3.9
2019-02-08T04:27:42.323Z,3.9
2019-02-08T04:28:51.536Z,3.9
2019-02-08T04:30:00.760Z,3.9
2019-02-08T04:31:09.957Z,3.9
2019-02-08T04:32:19.189Z,3.9
2019-02-08T04:33:28.362Z,3.9
2019-02-08T04:34:37.597Z,3.9
2019-02-08T04:35:46.806Z,3.9
2019-02-08T04:36:55.991Z,3.8
2019-02-08T04:38:05.195Z,3.8
2019-02-08T04:39:14.418Z,3.9
2019-02-08T04:40:23.681Z,3.9
2019-02-08T04:41:32.871Z,3.9
2019-02-08T04:42:42.142Z,3.8
2019-02-08T04:43:51.252Z,3.8
2019-02-08T04:45:00.454Z,3.9
2019-02-08T04:46:09.669Z,4
2019-02-08T04:47:18.882Z,3.9
2019-02-08T04:48:28.086Z,3.9
2019-02-08T04:49:37.291Z,3.9
2019-02-08T04:50:46.507Z,3.9
2019-02-08T04:51:55.715Z,3.9
2019-02-08T04:53:04.927Z,4
2019-02-08T04:54:14.145Z,4
2019-02-08T04:55:23.524Z,4
2019-02-08T04:56:32.657Z,4
2019-02-08T04:57:41.835Z,3.9
2019-02-08T04:58:50.967Z,3.9
2019-02-08T05:00:00.254Z,3.9
2019-02-08T05:01:09.386Z,3.8
2019-02-08T05:02:18.608Z,3.8
2019-02-08T05:03:27.843Z,3.8
2019-02-08T05:04:37.009Z,3.8
2019-02-08T05:05:46.269Z,3.8
2019-02-08T05:06:55.447Z,3.9
2019-02-08T05:08:04.723Z,3.9
2019-02-08T05:09:13.861Z,3.9
2019-02-08T05:10:23.066Z,3.8
2019-02-08T05:11:32.303Z,3.9
2019-02-08T05:12:41.538Z,3.9
2019-02-08T05:13:50.691Z,3.9
2019-02-08T05:14:59.917Z,3.8
2019-02-08T05:16:09.126Z,3.8
2019-02-08T05:17:18.336Z,3.8
2019-02-08T05:18:27.639Z,3.8
2019-02-08T05:19:36.808Z,3.8
2019-02-08T05:20:45.976Z,3.9
2019-02-08T05:21:55.164Z,3.9
2019-02-08T05:23:04.409Z,3.8
2019-02-08T05:24:13.630Z,3.9
2019-02-08T05:25:22.853Z,3.9
2019-02-08T05:26:32.037Z,3.8
2019-02-08T05:27:41.237Z,3.8
2019-02-08T05:28:50.461Z,3.8
2019-02-08T05:29:59.635Z,3.8
2019-02-08T05:31:08.873Z,3.8
2019-02-08T05:32:18.118Z,3.8
2019-02-08T05:33:27.282Z,3.8
2019-02-08T05:34:36.526Z,3.8
2019-02-08T05:35:45.683Z,3.8
2019-02-08T05:36:54.900Z,3.8
2019-02-08T05:38:04.104Z,3.8
2019-02-08T05:39:13.313Z,3.8
2019-02-08T05:40:22.555Z,3.7
2019-02-08T05:41:31.738Z,3.7
2019-02-08T05:42:41.039Z,3.7
2019-02-08T05:43:50.151Z,3.8
2019-02-08T05:44:59.379Z,3.8
2019-02-08T05:46:08.581Z,3.7
2019-02-08T05:47:17.779Z,3.8
2019-02-08T05:48:26.976Z,3.8
2019-02-08T05:49:36.192Z,3.8
2019-02-08T05:50:45.385Z,3.7
2019-02-08T05:51:54.595Z,3.7
2019-02-08T05:53:03.817Z,3.7
2019-02-08T05:54:13.061Z,3.8
2019-02-08T05:55:22.232Z,3.8
2019-02-08T05:56:31.487Z,3.9
2019-02-08T05:57:40.640Z,4
2019-02-08T05:58:49.841Z,3.9
2019-02-08T05:59:59.046Z,3.9
2019-02-08T06:01:08.249Z,3.9
2019-02-08T06:02:17.557Z,3.9
2019-02-08T06:03:26.722Z,3.9
2019-02-08T06:04:35.899Z,3.9
2019-02-08T06:05:45.086Z,3.9
2019-02-08T06:06:54.298Z,3.9
2019-02-08T06:08:03.523Z,3.9
2019-02-08T06:09:12.725Z,3.9
2019-02-08T06:10:21.968Z,3.9
2019-02-08T06:11:32.888Z,3.8
2019-02-08T06:12:40.373Z,3.9
2019-02-08T06:13:49.607Z,3.9
2019-02-08T06:14:58.768Z,3.9
2019-02-08T06:16:08.001Z,4
2019-02-08T06:17:17.210Z,3.9
2019-02-08T06:18:26.491Z,3.9
2019-02-08T06:19:35.625Z,3.9
2019-02-08T06:20:44.825Z,3.8
2019-02-08T06:21:54.163Z,3.9
2019-02-08T06:23:03.253Z,3.9
2019-02-08T06:24:12.491Z,3.8
2019-02-08T06:25:21.676Z,3.9
2019-02-08T06:26:30.878Z,3.9
2019-02-08T06:27:40.111Z,3.9
2019-02-08T06:28:49.373Z,3.9
2019-02-08T06:29:58.560Z,3.9
2019-02-08T06:31:07.732Z,4
2019-02-08T06:32:16.943Z,3.9
2019-02-08T06:33:26.161Z,4
2019-02-08T06:34:35.380Z,4
2019-02-08T06:35:44.584Z,3.9
2019-02-08T06:36:53.788Z,3.9
2019-02-08T06:38:02.998Z,3.9
2019-02-08T06:39:12.378Z,3.9
2019-02-08T06:40:21.423Z,3.9
2019-02-08T06:41:30.636Z,3.9
2019-02-08T06:42:39.855Z,3.9
2019-02-08T06:43:49.247Z,3.9
2019-02-08T06:44:58.268Z,3.8
2019-02-08T06:46:07.489Z,3.9
2019-02-08T06:47:16.690Z,3.9
2019-02-08T06:48:25.899Z,3.9
2019-02-08T06:49:35.110Z,3.9
2019-02-08T06:50:44.337Z,3.9
2019-02-08T06:51:53.541Z,3.9
2019-02-08T06:53:02.754Z,3.8
2019-02-08T06:54:12.105Z,3.9
2019-02-08T06:55:21.175Z,3.9
2019-02-08T06:56:30.434Z,3.9
2019-02-08T06:57:39.600Z,3.9
2019-02-08T06:58:48.811Z,3.9
2019-02-08T06:59:58.052Z,3.9
2019-02-08T07:01:07.240Z,3.9
2019-02-08T07:02:16.520Z,3.9
2019-02-08T07:03:25.669Z,3.9
2019-02-08T07:04:34.890Z,4
2019-02-08T07:05:44.126Z,3.9
2019-02-08T07:06:53.309Z,3.9
2019-02-08T07:08:02.563Z,4
2019-02-08T07:09:11.782Z,4
2019-02-08T07:10:20.966Z,4
2019-02-08T07:11:30.220Z,4
2019-02-08T07:12:39.396Z,4
2019-02-08T07:13:48.634Z,4
2019-02-08T07:14:57.915Z,4
2019-02-08T07:16:07.099Z,4.1
2019-02-08T07:17:16.467Z,4
2019-02-08T07:18:25.487Z,4.1
2019-02-08T07:19:34.820Z,4.1
2019-02-08T07:20:43.949Z,4.1
2019-02-08T07:21:53.151Z,4.1
2019-02-08T07:23:02.425Z,4.1
2019-02-08T07:24:11.596Z,4.2
2019-02-08T07:25:20.914Z,4.2
2019-02-08T07:26:30.023Z,4.2
2019-02-08T07:27:39.235Z,4.3
2019-02-08T07:28:48.450Z,4.2
2019-02-08T07:29:57.744Z,4.3
2019-02-08T07:31:06.900Z,4.3
2019-02-08T07:32:16.166Z,4.5
2019-02-08T07:33:25.336Z,4.3
2019-02-08T07:34:34.567Z,4.4
2019-02-08T07:35:43.795Z,4.4
2019-02-08T07:36:53.005Z,4.5
2019-02-08T07:38:02.322Z,4.5
2019-02-08T07:39:11.482Z,4.5
2019-02-08T07:40:20.684Z,4.6
2019-02-08T07:41:30.011Z,4.8
2019-02-08T07:42:39.142Z,4.7
2019-02-08T07:43:48.398Z,4.6
2019-02-08T07:44:57.610Z,4.8
2019-02-08T07:46:07.011Z,4.7
2019-02-08T07:47:16.101Z,4.7
2019-02-08T07:48:25.330Z,4.7
2019-02-08T07:49:34.567Z,4.9
2019-02-08T07:50:43.851Z,5
2019-02-08T07:51:53.017Z,5
2019-02-08T07:53:02.303Z,5
2019-02-08T07:54:11.647Z,5.3
2019-02-08T07:55:25.882Z,5.1
2019-02-08T07:56:30.095Z,5.1
2019-02-08T07:57:39.268Z,5.2
2019-02-08T07:58:48.500Z,5
2019-02-08T07:59:57.850Z,4.8
2019-02-08T08:01:06.988Z,4.9
2019-02-08T08:02:16.304Z,4.9
2019-02-08T08:03:25.480Z,5
2019-02-08T08:04:34.748Z,5
2019-02-08T08:05:44.000Z,5
2019-02-08T08:06:53.253Z,5
2019-02-08T08:08:02.602Z,5
2019-02-08T08:09:11.737Z,5
2019-02-08T08:10:21.033Z,5.1
2019-02-08T08:11:30.231Z,5
2019-02-08T08:12:39.596Z,5
2019-02-08T08:13:48.758Z,5
2019-02-08T08:14:57.975Z,5
2019-02-08T08:16:07.229Z,5
2019-02-08T08:17:16.485Z,5
2019-02-08T08:18:25.765Z,5.1
2019-02-08T08:19:35.062Z,5
2019-02-08T08:20:44.345Z,5
2019-02-08T08:21:53.509Z,5.1
2019-02-08T08:23:02.753Z,5.1
2019-02-08T08:24:12.042Z,5.1
2019-02-08T08:25:21.257Z,5.1
2019-02-08T08:26:30.531Z,5.2
2019-02-08T08:27:39.785Z,5.2
2019-02-08T08:28:49.070Z,5.2
2019-02-08T08:29:58.302Z,5.2
2019-02-08T08:31:07.550Z,5.2
2019-02-08T08:32:16.796Z,5.2
2019-02-08T08:33:26.200Z,5.2
2019-02-08T08:34:35.328Z,5.2
2019-02-08T08:35:44.604Z,5.2
2019-02-08T08:36:53.899Z,5.2
2019-02-08T08:38:03.078Z,5.2
2019-02-08T08:39:12.352Z,5.3
2019-02-08T08:40:21.593Z,5.3
2019-02-08T08:41:30.865Z,5.4
2019-02-08T08:42:40.174Z,5.6
2019-02-08T08:43:49.390Z,5.7
2019-02-08T08:44:58.661Z,5.6
2019-02-08T08:46:07.902Z,5.7
2019-02-08T08:47:17.167Z,5.8
2019-02-08T08:48:26.410Z,5.8
2019-02-08T08:49:35.674Z,5.7
2019-02-08T08:50:44.943Z,5.7
2019-02-08T08:51:54.204Z,6.1
2019-02-08T08:53:03.501Z,6
2019-02-08T08:54:12.739Z,6.2
2019-02-08T08:55:22.035Z,6.3
2019-02-08T08:56:31.408Z,6.3
2019-02-08T08:57:40.542Z,6.7
2019-02-08T08:58:49.883Z,6.6
2019-02-08T08:59:59.274Z,6.4
2019-02-08T09:01:08.407Z,6.7
2019-02-08T09:02:17.653Z,6.4
2019-02-08T09:03:26.954Z,6.6
2019-02-08T09:04:36.231Z,6.5
2019-02-08T09:05:45.515Z,6.4
2019-02-08T09:06:54.833Z,6.3
2019-02-08T09:08:04.087Z,6.4
2019-02-08T09:09:13.386Z,6.4
2019-02-08T09:10:22.686Z,6.5
2019-02-08T09:11:31.960Z,6.7
2019-02-08T09:12:41.434Z,6.7
2019-02-08T09:13:50.553Z,7.1
2019-02-08T09:14:59.869Z,7.2
2019-02-08T09:16:09.139Z,7.2
2019-02-08T09:17:18.618Z,7.1
2019-02-08T09:18:27.742Z,7.1
2019-02-08T09:19:37.026Z,7.2
2019-02-08T09:20:46.366Z,7.2
2019-02-08T09:21:55.626Z,7.5
2019-02-08T09:23:04.925Z,7.5
2019-02-08T09:24:14.220Z,7.4
2019-02-08T09:25:23.581Z,7.4
2019-02-08T09:26:32.919Z,7.3
2019-02-08T09:27:42.209Z,7.7
2019-02-08T09:28:51.427Z,7.5
2019-02-08T09:30:00.735Z,7.5
2019-02-08T09:31:10.028Z,7.7
2019-02-08T09:32:19.345Z,8.1
2019-02-08T09:33:28.645Z,8
2019-02-08T09:34:38.046Z,7.6
2019-02-08T09:35:47.305Z,7.8
2019-02-08T09:36:56.590Z,7.4
2019-02-08T09:38:05.888Z,7.6
2019-02-08T09:39:15.328Z,8
2019-02-08T09:40:24.514Z,7.6
2019-02-08T09:41:33.823Z,7.6
2019-02-08T09:42:43.172Z,7.5
2019-02-08T09:43:52.451Z,7.7
2019-02-08T09:45:01.766Z,8.1
2019-02-08T09:46:11.090Z,7.8
2019-02-08T09:47:20.388Z,8.2
2019-02-08T09:48:29.882Z,8.2
2019-02-08T09:49:39.050Z,8.3
2019-02-08T09:50:48.330Z,8
2019-02-08T09:51:57.664Z,8.4
2019-02-08T09:53:06.969Z,8
2019-02-08T09:54:16.437Z,8.5
2019-02-08T09:55:25.615Z,8.6
2019-02-08T09:56:34.985Z,8.5
2019-02-08T09:57:44.258Z,8.4
2019-02-08T09:58:53.576Z,8.7
2019-02-08T10:00:02.914Z,8.8
2019-02-08T10:01:12.233Z,8.8
2019-02-08T10:02:21.652Z,9.1
2019-02-08T10:03:30.906Z,9.3
2019-02-08T10:04:40.215Z,9.3
2019-02-08T10:05:49.558Z,9.3
2019-02-08T10:06:58.892Z,8.7
2019-02-08T10:08:08.254Z,8.6
2019-02-08T10:09:17.594Z,8.9
2019-02-08T10:10:26.887Z,8.7
2019-02-08T10:11:36.230Z,9.3
2019-02-08T10:12:45.590Z,8.7
2019-02-08T10:13:54.914Z,8.8
2019-02-08T10:15:04.274Z,8.8
2019-02-08T10:16:13.598Z,8.8
2019-02-08T10:17:22.936Z,8.7
2019-02-08T10:18:32.325Z,9.2
2019-02-08T10:19:41.680Z,8.7
2019-02-08T10:20:50.984Z,9.2
2019-02-08T10:22:00.357Z,9
2019-02-08T10:23:09.673Z,9.2
2019-02-08T10:24:19.065Z,9.1
2019-02-08T10:25:28.369Z,8.5
2019-02-08T10:26:37.905Z,8.7
2019-02-08T10:27:47.118Z,9.4
2019-02-08T10:28:56.496Z,9
2019-02-08T10:30:05.791Z,8.6
2019-02-08T10:31:15.145Z,8.5
2019-02-08T10:32:24.493Z,8.4
2019-02-08T10:33:33.892Z,8.5
2019-02-08T10:34:43.209Z,9.4
2019-02-08T10:35:52.575Z,9.1
2019-02-08T10:37:01.926Z,9.2
2019-02-08T10:38:11.399Z,9.4
2019-02-08T10:39:20.680Z,9.3
2019-02-08T10:40:30.023Z,8.9
2019-02-08T10:41:39.448Z,8.6
2019-02-08T10:42:48.790Z,8.6
2019-02-08T10:43:58.126Z,8.4
2019-02-08T10:45:07.497Z,8.3
2019-02-08T10:46:16.861Z,8.7
2019-02-08T10:47:26.225Z,8.9
2019-02-08T10:48:35.596Z,8.9
2019-02-08T10:49:44.963Z,8.5
2019-02-08T10:50:54.329Z,8.7
2019-02-08T10:52:03.742Z,9.1
2019-02-08T10:53:13.144Z,8.7
2019-02-08T10:54:22.432Z,8.3
2019-02-08T10:55:31.810Z,8.1
2019-02-08T10:56:41.250Z,8.5
2019-02-08T10:57:50.508Z,8.8
2019-02-08T10:58:59.858Z,8.6
2019-02-08T11:00:09.219Z,8.7
2019-02-08T11:01:18.587Z,8.4
2019-02-08T11:02:28.043Z,8.3
2019-02-08T11:03:37.303Z,8.3
2019-02-08T11:04:46.680Z,8.6
2019-02-08T11:05:56.027Z,8.9
2019-02-08T11:07:05.504Z,8.7
2019-02-08T11:08:14.741Z,8.5
2019-02-08T11:09:24.145Z,8.2
2019-02-08T11:10:33.459Z,8.1
2019-02-08T11:11:43.109Z,8.3
2019-02-08T11:12:52.200Z,8.4
2019-02-08T11:14:01.727Z,8.2
2019-02-08T11:15:10.878Z,8.7
2019-02-08T11:16:20.374Z,8.5
2019-02-08T11:17:29.600Z,8.2
2019-02-08T11:18:38.958Z,8.2
2019-02-08T11:19:48.353Z,8.2
2019-02-08T11:20:57.692Z,8.3
2019-02-08T11:22:07.012Z,8.4
2019-02-08T11:23:16.445Z,8.4
2019-02-08T11:24:25.739Z,8.5
2019-02-08T11:25:35.091Z,8.6
2019-02-08T11:26:44.428Z,8.6
2019-02-08T11:27:53.831Z,8.6
2019-02-08T11:29:03.172Z,8.5
2019-02-08T11:30:12.514Z,8.5
2019-02-08T11:31:21.944Z,8.6
2019-02-08T11:32:42.763Z,8.5
2019-02-08T11:33:40.574Z,8.8
2019-02-08T11:34:49.935Z,8.9
2019-02-08T11:35:59.493Z,8.9
2019-02-08T11:37:08.643Z,9
2019-02-08T11:38:18.001Z,8.4
2019-02-08T11:39:27.367Z,8.3
2019-02-08T11:40:36.727Z,8.7
2019-02-08T11:41:46.201Z,8.7
2019-02-08T11:42:55.418Z,8.7
2019-02-08T11:44:04.846Z,8.7
2019-02-08T11:45:14.174Z,8.3
2019-02-08T11:46:23.725Z,8.7
2019-02-08T11:47:32.846Z,8.4
2019-02-08T11:48:42.201Z,8.6
2019-02-08T11:49:51.564Z,8.5
2019-02-08T11:51:00.953Z,8.6
2019-02-08T11:52:10.326Z,8.5
2019-02-08T11:53:19.702Z,8.5
2019-02-08T11:54:29.001Z,8.6
2019-02-08T11:55:38.357Z,8.7
2019-02-08T11:56:47.748Z,8.8
2019-02-08T11:57:57.084Z,8.8
2019-02-08T11:59:06.570Z,8.9
2019-02-08T12:00:15.766Z,8.7
2019-02-08T12:01:25.131Z,8.8
2019-02-08T12:02:40.328Z,8.8
2019-02-08T12:03:43.869Z,8.9
2019-02-08T12:04:53.210Z,8.7
2019-02-08T12:06:02.893Z,9
2019-02-08T12:07:11.929Z,8.9
2019-02-08T12:08:21.296Z,8.9
2019-02-08T12:09:30.651Z,8.6
2019-02-08T12:10:40.007Z,8.7
2019-02-08T12:11:49.371Z,8.6
2019-02-08T12:12:58.757Z,8.8
2019-02-08T12:14:08.109Z,9
2019-02-08T12:15:17.526Z,8.9
2019-02-08T12:16:26.813Z,8.9
2019-02-08T12:17:36.202Z,8.9
2019-02-08T12:18:45.528Z,9.1
2019-02-08T12:19:54.896Z,9.3
2019-02-08T12:21:04.266Z,8.9
2019-02-08T12:22:13.619Z,8.9
2019-02-08T12:23:22.993Z,9.1
2019-02-08T12:24:32.376Z,8.9
2019-02-08T12:25:41.860Z,9
2019-02-08T12:26:51.101Z,8.8
2019-02-08T12:28:00.453Z,8.9
2019-02-08T12:29:09.791Z,9.1
2019-02-08T12:30:19.154Z,9.2
2019-02-08T12:31:28.539Z,9.4
2019-02-08T12:32:37.926Z,9
2019-02-08T12:33:47.324Z,9.1
2019-02-08T12:34:56.605Z,9
2019-02-08T12:36:06.068Z,9
2019-02-08T12:37:15.320Z,9
2019-02-08T12:38:24.705Z,9
2019-02-08T12:39:34.076Z,9.2
2019-02-08T12:40:43.541Z,9
2019-02-08T12:41:52.795Z,9.1
2019-02-08T12:43:02.143Z,8.8
2019-02-08T12:44:11.547Z,8.8
2019-02-08T12:45:20.832Z,8.9
2019-02-08T12:46:30.281Z,8.7
2019-02-08T12:47:39.564Z,8.9
2019-02-08T12:48:48.911Z,8.9
2019-02-08T12:49:58.271Z,8.8
2019-02-08T12:51:07.618Z,8.8
2019-02-08T12:52:17.147Z,8.8
2019-02-08T12:53:26.353Z,8.7
2019-02-08T12:54:35.732Z,8.9
2019-02-08T12:55:45.157Z,8.9
2019-02-08T12:56:54.667Z,9
2019-02-08T12:58:03.763Z,9
2019-02-08T12:59:13.115Z,8.9
2019-02-08T13:00:22.508Z,8.8
2019-02-08T13:01:37.531Z,8.7
2019-02-08T13:02:41.358Z,8.8
2019-02-08T13:03:50.546Z,9
2019-02-08T13:04:59.947Z,9
2019-02-08T13:06:09.281Z,9
2019-02-08T13:07:18.610Z,8.9
2019-02-08T13:08:27.985Z,8.9
2019-02-08T13:09:37.315Z,8.9
2019-02-08T13:10:46.754Z,8.9
2019-02-08T13:11:56.025Z,9.1
2019-02-08T13:13:05.382Z,9.1
2019-02-08T13:14:14.773Z,9.1
2019-02-08T13:15:24.109Z,8.9
2019-02-08T13:16:33.634Z,8.9
2019-02-08T13:17:42.817Z,9
2019-02-08T13:18:52.330Z,9.1
2019-02-08T13:20:01.553Z,8.9
2019-02-08T13:21:11.030Z,9
2019-02-08T13:22:20.333Z,9
2019-02-08T13:23:29.623Z,9
2019-02-08T13:24:38.968Z,9.1
2019-02-08T13:25:48.331Z,9.1
2019-02-08T13:26:57.703Z,9
2019-02-08T13:28:07.055Z,9
2019-02-08T13:29:16.428Z,9
2019-02-08T13:30:25.786Z,9
2019-02-08T13:31:35.150Z,9.1
2019-02-08T13:32:44.589Z,8.9
2019-02-08T13:33:53.875Z,8.7
2019-02-08T13:35:03.348Z,8.7
2019-02-08T13:36:12.764Z,8.8
2019-02-08T13:37:23.603Z,8.8
2019-02-08T13:38:33.012Z,9
2019-02-08T13:39:42.277Z,8.9
2019-02-08T13:40:51.594Z,9
2019-02-08T13:42:01.060Z,9.2
2019-02-08T13:43:10.354Z,9.2
2019-02-08T13:44:19.693Z,9.1
2019-02-08T13:45:29.059Z,9.3
2019-02-08T13:46:38.437Z,9.2
2019-02-08T13:47:47.783Z,9.1
2019-02-08T13:48:57.160Z,9.1
2019-02-08T13:50:06.602Z,8.9
2019-02-08T13:51:15.982Z,9.1
2019-02-08T13:52:26.056Z,9
2019-02-08T13:53:34.636Z,9
2019-02-08T13:54:44.299Z,9
2019-02-08T13:55:53.465Z,9
2019-02-08T13:57:02.782Z,8.9
2019-02-08T13:58:12.097Z,8.9
2019-02-08T13:59:21.483Z,9.1
2019-02-08T14:00:30.886Z,9
2019-02-08T14:01:40.227Z,8.9
2019-02-08T14:02:49.656Z,8.9
2019-02-08T14:03:58.900Z,8.8
2019-02-08T14:05:08.258Z,8.9
2019-02-08T14:06:17.673Z,8.8
2019-02-08T14:07:26.986Z,9
2019-02-08T14:08:36.333Z,9
2019-02-08T14:09:45.701Z,9.3
2019-02-08T14:10:55.050Z,9.1
2019-02-08T14:12:04.423Z,9.1
2019-02-08T14:13:13.768Z,9.1
2019-02-08T14:14:23.134Z,9.2
2019-02-08T14:15:32.549Z,9.2
2019-02-08T14:16:42.341Z,9.2
2019-02-08T14:17:51.210Z,9.3
2019-02-08T14:19:00.582Z,9.3
2019-02-08T14:20:10.022Z,9.2
2019-02-08T14:21:19.300Z,9.1
2019-02-08T14:22:28.673Z,9.2
2019-02-08T14:23:38.066Z,9.3
2019-02-08T14:24:47.585Z,9.3
2019-02-08T14:25:56.817Z,9.3
2019-02-08T14:27:08.465Z,9.2
2019-02-08T14:28:15.549Z,9.2
2019-02-08T14:29:24.924Z,9.3
2019-02-08T14:30:35.305Z,9.4
2019-02-08T14:31:44.736Z,9.2
2019-02-08T14:32:53.951Z,9.2
2019-02-08T14:34:03.302Z,9.1
2019-02-08T14:35:13.042Z,9
2019-02-08T14:36:22.033Z,9
2019-02-08T14:37:31.465Z,9.1
2019-02-08T14:38:40.767Z,8.9
2019-02-08T14:39:50.101Z,9.1
2019-02-08T14:40:59.495Z,9.2
2019-02-08T14:42:08.831Z,9.2
2019-02-08T14:43:18.203Z,9.2
2019-02-08T14:44:27.561Z,9.1
2019-02-08T14:45:36.912Z,9
2019-02-08T14:46:46.703Z,8.9
2019-02-08T14:47:55.657Z,8.9
2019-02-08T14:49:04.960Z,8.9
2019-02-08T14:50:14.358Z,8.9
2019-02-08T14:51:23.696Z,8.9
2019-02-08T14:52:33.066Z,8.9
2019-02-08T14:53:42.400Z,8.8
2019-02-08T14:54:51.743Z,9
2019-02-08T14:56:01.087Z,8.8
2019-02-08T14:57:16.431Z,8.8
2019-02-08T14:58:19.780Z,8.9
2019-02-08T14:59:29.117Z,8.9
2019-02-08T15:00:38.612Z,8.8
2019-02-08T15:01:47.812Z,8.8
2019-02-08T15:02:57.218Z,8.8
2019-02-08T15:04:07.627Z,8.8
2019-02-08T15:05:15.895Z,8.8
2019-02-08T15:06:25.186Z,8.8
2019-02-08T15:07:34.535Z,8.9
2019-02-08T15:08:43.872Z,8.9
2019-02-08T15:09:53.218Z,8.8
2019-02-08T15:11:02.663Z,8.9
2019-02-08T15:12:11.973Z,8.8
2019-02-08T15:13:21.258Z,8.9
2019-02-08T15:14:30.584Z,8.8
2019-02-08T15:15:39.920Z,8.8
2019-02-08T15:16:49.436Z,8.8
2019-02-08T15:17:58.629Z,8.7
2019-02-08T15:19:08.053Z,8.8
2019-02-08T15:20:17.324Z,8.8
2019-02-08T15:21:26.747Z,8.7
2019-02-08T15:22:35.982Z,8.7
2019-02-08T15:23:45.342Z,8.8
2019-02-08T15:24:54.669Z,8.7
2019-02-08T15:26:03.998Z,8.7
2019-02-08T15:27:13.350Z,8.7
2019-02-08T15:28:22.712Z,8.7
2019-02-08T15:29:32.014Z,8.7
2019-02-08T15:30:41.354Z,8.7
2019-02-08T15:31:50.660Z,8.7
2019-02-08T15:33:00.039Z,8.7
2019-02-08T15:34:09.355Z,8.7
2019-02-08T15:35:19.026Z,8.8
2019-02-08T15:36:28.014Z,8.8
2019-02-08T15:37:37.351Z,8.7
2019-02-08T15:38:46.703Z,8.7
2019-02-08T15:39:56.056Z,8.7
2019-02-08T15:41:05.369Z,8.7
2019-02-08T15:42:14.907Z,8.7
2019-02-08T15:43:24.022Z,8.7
2019-02-08T15:44:33.355Z,8.7
2019-02-08T15:45:42.690Z,8.6
2019-02-08T15:46:52.117Z,8.7
2019-02-08T15:48:01.524Z,8.7
2019-02-08T15:49:10.772Z,8.6
2019-02-08T15:50:20.113Z,8.6
2019-02-08T15:51:29.367Z,8.6
2019-02-08T15:52:38.683Z,8.6
2019-02-08T15:53:48.010Z,8.6
2019-02-08T15:54:57.503Z,8.6
2019-02-08T15:56:06.691Z,8.5
2019-02-08T15:57:15.989Z,8.5
2019-02-08T15:58:25.346Z,8.5
2019-02-08T15:59:34.677Z,8.5
2019-02-08T16:00:43.996Z,8.5
2019-02-08T16:01:53.305Z,8.5
2019-02-08T16:03:02.679Z,8.5